メインページ
METAR-TAF:

METAR-TAF

空港 :

エセンボーア国際空港

アンカラ-エセンボーア, トルコ

緯度: 40-07N, 経度: 032-59E, 海抜: 953m

現時点の気象観測

当レポートは34分前の23:20(UTC)に作成
北/北東の風 5kt
気温 -4°C
湿度 80%
気圧 1018 hPa
視程10km以上
1,500メートル以下は雲なし、積乱雲なし

METAR: LTAC 142320Z 02005KT CAVOK M04/M07 Q1018 NOSIG

時間: 02:54 (23:54 UTC)

予報

当レポートは1時間14分前の22:40(UTC)に作成
予報は15日の 00時(UTC)から 15日の 24時(UTC)まで有効
変向風 2kt
視程10km以上
1,500メートル以下は雲なし、積乱雲なし
15日の 05時(UTC)から 15日の 07時(UTC)まで徐々に
高度4000ftの雲は散在している

TAF: LTAC 142240Z 1500/1524 VRB02KT CAVOK BECMG 1505/1507 SCT040

4,000以上の空港の気象観測と天気予報(METAR報とTAF報)

利用可能な観測所は地図上に黄色い丸と赤い丸で示す。

丸の上にカーソルを重ねると観測所名を参照できる。

次にクリックすると気象観測と天気予報を参照できる。

マップの切り替え:黒色「×」印の緑ボタンをクリックして拡大、「-」印の緑ボタンをクリックして縮小、緑色の三角印をクリックして隣りの地図に切り替え


METAR-TAF: